createdAt,value
2022-09-04T00:00:02.556Z,146.2
2022-09-04T00:15:01.510Z,146.2
2022-09-04T00:30:02.252Z,146.2
2022-09-04T00:45:02.071Z,146.2
2022-09-04T01:00:01.962Z,146.2
2022-09-04T01:15:01.876Z,146.2
2022-09-04T01:30:01.703Z,114.94
2022-09-04T01:45:01.890Z,114.82
2022-09-04T02:00:02.259Z,115.19
2022-09-04T02:15:02.165Z,115.2
2022-09-04T02:30:01.446Z,114.86
2022-09-04T02:45:01.661Z,114.46
2022-09-04T03:00:02.235Z,114.34
2022-09-04T03:15:03.033Z,114.17
2022-09-04T03:30:01.759Z,114.5
2022-09-04T03:45:02.104Z,112.51
2022-09-04T04:00:02.393Z,112.51
2022-09-04T04:15:02.726Z,113.81
2022-09-04T04:30:02.270Z,112.92
2022-09-04T04:45:02.124Z,114.5
2022-09-04T05:00:02.226Z,113.8
2022-09-04T05:15:01.984Z,113.8
2022-09-04T05:30:02.314Z,113.8
2022-09-04T05:45:01.637Z,113.8
2022-09-04T06:00:02.493Z,113.8
2022-09-04T06:15:01.628Z,113.8
2022-09-04T06:30:02.665Z,113.8
2022-09-04T06:45:02.996Z,111.79
2022-09-04T07:00:01.417Z,110
2022-09-04T07:15:03.012Z,109.44
2022-09-04T07:30:01.852Z,104.42
2022-09-04T07:45:02.173Z,104.1
2022-09-04T08:00:02.124Z,99.24
2022-09-04T08:15:01.918Z,99.68
2022-09-04T08:30:02.708Z,95.84
2022-09-04T08:45:02.995Z,96.61
2022-09-04T09:00:02.097Z,94.71
2022-09-04T09:15:01.985Z,94.2
2022-09-04T09:30:01.874Z,95.43
2022-09-04T09:45:01.910Z,83.5
2022-09-04T10:00:02.219Z,88.43
2022-09-04T10:15:02.395Z,80.74
2022-09-04T10:30:02.700Z,75.4
2022-09-04T10:45:02.010Z,68.4
2022-09-04T11:00:02.312Z,68.4
2022-09-04T11:15:02.243Z,68.4
2022-09-04T11:30:01.538Z,59.7
2022-09-04T11:45:01.722Z,50.23
2022-09-04T12:00:03.013Z,50.23
2022-09-04T12:15:07.379Z,50.23
2022-09-04T12:30:02.603Z,50.23
2022-09-04T12:45:02.289Z,50.23
2022-09-04T13:00:02.188Z,50.23
2022-09-04T13:15:01.343Z,50.23
2022-09-04T13:30:03.651Z,50.23
2022-09-04T13:45:02.123Z,50.23
2022-09-04T14:00:02.104Z,50.23
2022-09-04T14:15:01.979Z,50.23
2022-09-04T14:30:02.197Z,50.23
2022-09-04T14:45:03.008Z,50.23
2022-09-04T15:00:01.838Z,78.84
2022-09-04T15:15:01.458Z,78.84
2022-09-04T15:30:02.461Z,77.63
2022-09-04T15:45:02.515Z,77.63
2022-09-04T16:00:02.561Z,77.63
2022-09-04T16:15:02.389Z,77.63
2022-09-04T16:30:02.400Z,77.63
2022-09-04T16:45:02.503Z,77.63
2022-09-04T17:00:02.543Z,77.63
2022-09-04T17:15:02.855Z,77.63
2022-09-04T17:30:02.521Z,77.63
2022-09-04T17:45:01.672Z,77.63
2022-09-04T18:00:01.821Z,77.63
2022-09-04T18:15:18.311Z,99.8
2022-09-04T18:31:46.433Z,99.8
2022-09-04T18:48:14.209Z,129.71
2022-09-04T19:00:08.557Z,129.71
2022-09-04T19:15:02.737Z,102.56
2022-09-04T19:30:11.900Z,102.68
2022-09-04T19:45:58.637Z,102.68
2022-09-04T20:00:06.174Z,102.68
2022-09-04T20:15:02.016Z,102.68
2022-09-04T20:30:02.852Z,106.93
2022-09-04T20:46:46.875Z,107.17
2022-09-04T21:03:16.595Z,107.5
2022-09-04T21:15:02.261Z,107.33
2022-09-04T21:30:01.561Z,107.5
2022-09-04T21:45:02.147Z,108.14
2022-09-04T22:02:34.580Z,107.58
2022-09-04T22:15:02.184Z,106.4
2022-09-04T22:30:01.511Z,106.48
2022-09-04T22:45:10.118Z,108.63
2022-09-04T23:00:01.926Z,108.47
2022-09-04T23:15:08.149Z,107.82
2022-09-04T23:30:01.407Z,109.15
2022-09-04T23:45:02.209Z,107.9
